Time;durP1;ratioP1;P1;durP2;ratioP2;P2;SDS_P1;SDS_P2;PMS_P1;PMS_P2;Temp;Humidity;BMP_temperature;BMP_pressure;BME280_temperature;BME280_humidity;BME280_pressure;Samples;Min_cycle;Max_cycle;Signal;HPM_P1;HPM_P2
2023/05/23 00:01:57;;;;;;;6.55;3.55;;;16.00;99.90;;;;;;5007981;28;20037;-70
2023/05/23 00:04:25;;;;;;;7.63;4.50;;;16.00;99.90;;;;;;5011651;28;20045;-69
2023/05/23 00:06:52;;;;;;;6.50;3.65;;;16.00;99.90;;;;;;5013108;28;20589;-70
2023/05/23 00:09:18;;;;;;;5.07;2.83;;;16.00;99.90;;;;;;5023024;28;20049;-69
2023/05/23 00:11:44;;;;;;;7.25;3.55;;;15.90;99.90;;;;;;5009287;28;20041;-70
2023/05/23 00:14:13;;;;;;;6.40;3.95;;;16.00;99.90;;;;;;5023274;28;20037;-70
2023/05/23 00:16:44;;;;;;;7.55;3.53;;;15.90;99.90;;;;;;5006171;28;20040;-70
2023/05/23 00:19:11;;;;;;;9.00;3.97;;;16.00;99.90;;;;;;5017669;28;21607;-69
2023/05/23 00:21:37;;;;;;;7.25;4.78;;;16.00;99.90;;;;;;5011668;28;20056;-70
2023/05/23 00:24:04;;;;;;;10.15;5.03;;;15.90;99.90;;;;;;5012353;28;20658;-70
2023/05/23 00:26:31;;;;;;;7.80;4.10;;;15.90;99.90;;;;;;5014205;28;20033;-70
2023/05/23 00:28:57;;;;;;;6.75;4.22;;;15.90;99.90;;;;;;5014815;28;21589;-69
2023/05/23 00:31:24;;;;;;;8.90;6.35;;;15.90;99.90;;;;;;4991098;28;20041;-70
2023/05/23 00:33:50;;;;;;;7.97;4.97;;;15.90;99.90;;;;;;5001044;28;20044;-70
2023/05/23 00:36:17;;;;;;;7.85;5.03;;;15.80;99.90;;;;;;5025691;28;20029;-69
2023/05/23 00:38:44;;;;;;;10.85;5.35;;;15.80;99.90;;;;;;5020500;28;20041;-70
2023/05/23 00:41:11;;;;;;;8.95;6.03;;;15.80;99.90;;;;;;4991037;28;20029;-70
2023/05/23 00:43:37;;;;;;;7.20;4.13;;;15.80;99.90;;;;;;5015147;28;20408;-70
2023/05/23 00:46:04;;;;;;;10.85;6.45;;;15.80;99.90;;;;;;5012812;28;20033;-69
2023/05/23 00:48:31;;;;;;;9.10;5.18;;;15.80;99.90;;;;;;5013853;28;20041;-69
2023/05/23 00:50:58;;;;;;;8.73;6.43;;;15.80;99.90;;;;;;5007431;28;20063;-70
2023/05/23 00:53:24;;;;;;;12.05;6.38;;;15.70;99.90;;;;;;5012860;28;20511;-66
2023/05/23 00:55:51;;;;;;;13.05;7.82;;;15.70;99.90;;;;;;5024579;28;20036;-67
2023/05/23 00:58:17;;;;;;;17.52;7.45;;;15.70;99.90;;;;;;5034520;28;20048;-68
2023/05/23 01:00:44;;;;;;;13.48;7.15;;;15.70;99.90;;;;;;4997214;28;20036;-68
2023/05/23 01:03:16;;;;;;;9.75;6.65;;;15.60;99.90;;;;;;4997631;28;20041;-68
2023/05/23 01:05:44;;;;;;;12.70;7.57;;;15.60;99.90;;;;;;5011090;28;20045;-68
2023/05/23 01:08:10;;;;;;;8.48;5.95;;;15.50;99.90;;;;;;5013511;28;20400;-69
2023/05/23 01:10:37;;;;;;;10.90;6.10;;;15.50;99.90;;;;;;4989684;28;20033;-68
2023/05/23 01:13:10;;;;;;;12.98;6.07;;;15.50;99.90;;;;;;5011220;28;20041;-68
2023/05/23 01:15:42;;;;;;;10.93;5.80;;;15.50;99.90;;;;;;5029664;28;20033;-68
2023/05/23 01:18:15;;;;;;;11.13;5.28;;;15.40;99.90;;;;;;5007050;28;20029;-68
2023/05/23 01:20:58;;;;;;;11.98;6.35;;;15.40;99.90;;;;;;4985499;28;20385;-68
2023/05/23 01:23:54;;;;;;;10.57;6.05;;;15.40;99.90;;;;;;4983826;28;20041;-69
2023/05/23 01:26:51;;;;;;;12.38;5.32;;;15.30;99.90;;;;;;5011795;28;20037;-69
2023/05/23 01:29:56;;;;;;;11.30;6.13;;;15.30;99.90;;;;;;5010515;28;20041;-68
2023/05/23 01:32:25;;;;;;;13.45;5.60;;;15.20;99.90;;;;;;4991430;28;20610;-69
2023/05/23 01:34:53;;;;;;;11.27;6.20;;;15.20;99.90;;;;;;5010059;28;20025;-68
2023/05/23 01:37:19;;;;;;;11.02;5.35;;;15.20;99.90;;;;;;5011839;28;20480;-69
2023/05/23 01:39:46;;;;;;;6.90;4.70;;;15.20;99.90;;;;;;5013540;28;20047;-68
2023/05/23 01:42:14;;;;;;;8.38;4.07;;;15.20;99.90;;;;;;5004116;28;20037;-68
2023/05/23 01:44:41;;;;;;;8.88;5.18;;;15.20;99.90;;;;;;5019427;28;20444;-69
2023/05/23 01:47:09;;;;;;;8.75;4.40;;;15.20;99.90;;;;;;5009534;28;20040;-69
2023/05/23 01:49:37;;;;;;;8.75;4.88;;;15.20;99.90;;;;;;5004272;28;20040;-68
2023/05/23 01:52:04;;;;;;;6.75;4.45;;;15.20;99.90;;;;;;4991490;28;20483;-69
2023/05/23 01:54:34;;;;;;;7.85;5.03;;;15.20;99.90;;;;;;5012451;28;20713;-69
2023/05/23 01:57:00;;;;;;;7.35;4.53;;;15.20;99.90;;;;;;5008616;28;20043;-68
2023/05/23 01:59:27;;;;;;;9.90;4.97;;;15.20;99.90;;;;;;5007608;28;20044;-68
2023/05/23 02:01:55;;;;;;;11.63;6.32;;;15.20;99.90;;;;;;5005986;28;20500;-69
2023/05/23 02:04:21;;;;;;;10.45;5.50;;;15.20;99.90;;;;;;5021778;28;20113;-68
2023/05/23 02:06:47;;;;;;;9.05;3.90;;;15.20;99.90;;;;;;5019498;28;20033;-68
2023/05/23 02:09:14;;;;;;;8.23;5.63;;;15.20;99.90;;;;;;5008730;28;20029;-68
2023/05/23 02:11:40;;;;;;;8.82;5.03;;;15.20;99.90;;;;;;5007879;28;21035;-68
2023/05/23 02:14:08;;;;;;;9.77;5.00;;;15.20;99.90;;;;;;5010477;28;20033;-68
2023/05/23 02:16:35;;;;;;;7.97;3.78;;;15.20;99.90;;;;;;5011148;28;20029;-68
2023/05/23 02:19:03;;;;;;;4.45;3.00;;;15.20;99.90;;;;;;5021950;28;20036;-67
2023/05/23 02:21:30;;;;;;;12.25;6.07;;;15.20;99.90;;;;;;5010653;28;20461;-70
2023/05/23 02:23:56;;;;;;;7.35;4.40;;;15.20;99.90;;;;;;5023150;28;20036;-68
2023/05/23 02:26:23;;;;;;;8.45;4.60;;;15.20;99.90;;;;;;5022422;28;22082;-68
2023/05/23 02:28:49;;;;;;;9.07;4.97;;;15.20;99.90;;;;;;5011409;28;20954;-68
2023/05/23 02:31:16;;;;;;;6.75;4.75;;;15.20;99.90;;;;;;5007069;28;20040;-68
2023/05/23 02:33:42;;;;;;;11.02;5.95;;;15.20;99.90;;;;;;5014287;28;20043;-67
2023/05/23 02:36:09;;;;;;;7.57;4.90;;;15.20;99.90;;;;;;5011595;28;20500;-68
2023/05/23 02:38:35;;;;;;;8.55;4.80;;;15.20;99.90;;;;;;5009058;28;20044;-68
2023/05/23 02:41:01;;;;;;;9.20;4.68;;;15.10;99.90;;;;;;5007402;28;20056;-68
2023/05/23 02:43:28;;;;;;;14.80;5.78;;;15.10;99.90;;;;;;5019796;28;20040;-68
2023/05/23 02:45:54;;;;;;;14.60;6.68;;;15.10;99.90;;;;;;5021426;28;20222;-68
2023/05/23 02:48:21;;;;;;;9.23;5.47;;;15.00;99.90;;;;;;5018483;28;20488;-67
2023/05/23 02:50:47;;;;;;;11.68;6.07;;;15.00;99.90;;;;;;5005440;28;20496;-68
2023/05/23 02:53:14;;;;;;;9.48;5.22;;;15.00;99.90;;;;;;4992867;28;20044;-68
2023/05/23 02:55:41;;;;;;;10.77;4.55;;;15.00;99.90;;;;;;4992307;28;20045;-68
2023/05/23 02:58:07;;;;;;;11.43;5.78;;;15.00;99.90;;;;;;4992203;28;20068;-68
2023/05/23 03:00:35;;;;;;;13.65;6.30;;;15.00;99.90;;;;;;5005073;28;20046;-68
2023/05/23 03:03:01;;;;;;;15.60;6.90;;;15.00;99.90;;;;;;4998109;28;20040;-67
2023/05/23 03:05:27;;;;;;;14.73;6.22;;;15.00;99.90;;;;;;5010722;28;20037;-68
2023/05/23 03:07:54;;;;;;;8.80;4.95;;;15.00;99.90;;;;;;5003576;28;20041;-68
2023/05/23 03:10:20;;;;;;;12.10;5.57;;;15.00;99.90;;;;;;5008046;28;20037;-68
2023/05/23 03:12:46;;;;;;;9.93;5.30;;;15.00;99.90;;;;;;5010123;28;20044;-69
2023/05/23 03:15:15;;;;;;;12.30;5.85;;;15.00;99.90;;;;;;5008407;28;20060;-69
2023/05/23 03:17:43;;;;;;;10.93;5.10;;;15.00;99.90;;;;;;5007581;28;20041;-68
2023/05/23 03:20:10;;;;;;;10.93;5.20;;;15.00;99.90;;;;;;5003169;28;20040;-68
2023/05/23 03:22:38;;;;;;;8.18;3.90;;;15.00;99.90;;;;;;5009313;28;20400;-68
2023/05/23 03:25:05;;;;;;;8.60;4.22;;;14.90;99.90;;;;;;5001151;28;20036;-68
2023/05/23 03:27:32;;;;;;;8.82;4.75;;;14.90;99.90;;;;;;5019294;28;20036;-68
2023/05/23 03:29:59;;;;;;;8.20;4.22;;;14.90;99.90;;;;;;5011703;28;20036;-67
2023/05/23 03:32:25;;;;;;;9.07;4.60;;;14.80;99.90;;;;;;5010913;28;21536;-68
2023/05/23 03:34:51;;;;;;;6.72;3.70;;;14.80;99.90;;;;;;4995230;28;20384;-68
2023/05/23 03:37:18;;;;;;;6.32;3.30;;;14.80;99.90;;;;;;5011919;28;20044;-68
2023/05/23 03:39:44;;;;;;;5.15;2.88;;;14.80;99.90;;;;;;5010105;28;20032;-68
2023/05/23 03:42:10;;;;;;;6.93;4.30;;;14.80;99.90;;;;;;5015322;28;20700;-69
2023/05/23 03:44:37;;;;;;;5.40;3.80;;;14.80;99.90;;;;;;5019764;28;20147;-68
2023/05/23 03:47:05;;;;;;;5.45;3.65;;;14.80;99.90;;;;;;5023739;28;20491;-68
2023/05/23 03:49:34;;;;;;;8.10;4.72;;;14.80;99.90;;;;;;5013789;28;20037;-68
2023/05/23 03:52:01;;;;;;;10.18;5.80;;;14.80;99.90;;;;;;5010827;28;20056;-68
2023/05/23 03:54:28;;;;;;;11.10;4.57;;;14.80;99.90;;;;;;5010050;28;20033;-68
2023/05/23 03:56:55;;;;;;;8.18;4.90;;;14.80;99.90;;;;;;5010113;28;20045;-68
2023/05/23 03:59:22;;;;;;;8.02;4.43;;;14.80;99.90;;;;;;4990822;28;21700;-68
2023/05/23 04:01:48;;;;;;;9.40;4.50;;;14.80;99.90;;;;;;5010913;28;20032;-68
2023/05/23 04:04:16;;;;;;;9.32;5.15;;;14.80;99.90;;;;;;4994537;28;20044;-68
2023/05/23 04:06:43;;;;;;;10.40;4.28;;;14.80;99.90;;;;;;5017528;28;20051;-69
2023/05/23 04:09:09;;;;;;;7.78;4.88;;;14.80;99.90;;;;;;5017035;28;20036;-68
2023/05/23 04:11:40;;;;;;;5.97;4.32;;;14.80;99.90;;;;;;5018956;28;20040;-69
2023/05/23 04:14:07;;;;;;;9.60;4.63;;;14.90;99.90;;;;;;5005542;28;20036;-68
2023/05/23 04:16:34;;;;;;;9.90;4.95;;;14.90;99.90;;;;;;5007041;28;20037;-68
2023/05/23 04:19:03;;;;;;;7.80;4.20;;;14.90;99.90;;;;;;4994079;28;20044;-67
2023/05/23 04:21:30;;;;;;;8.98;4.38;;;14.90;99.90;;;;;;4976412;28;20036;-68
2023/05/23 04:24:08;;;;;;;9.13;3.90;;;14.90;99.90;;;;;;5029418;28;20055;-68
2023/05/23 04:26:35;;;;;;;10.50;5.57;;;15.00;99.90;;;;;;5031003;28;20033;-68
2023/05/23 04:29:05;;;;;;;15.27;6.63;;;15.00;99.90;;;;;;5003557;28;20037;-68
2023/05/23 04:31:33;;;;;;;13.57;5.88;;;15.00;99.90;;;;;;5003089;28;20385;-68
2023/05/23 04:34:01;;;;;;;8.23;4.30;;;15.00;99.90;;;;;;5021777;28;20103;-68
2023/05/23 04:36:29;;;;;;;14.07;6.03;;;15.00;99.90;;;;;;5004489;28;20044;-68
2023/05/23 04:38:55;;;;;;;13.13;6.13;;;14.90;99.90;;;;;;5007660;28;20033;-69
2023/05/23 04:41:22;;;;;;;16.23;6.63;;;14.90;99.90;;;;;;5004230;28;20712;-68
2023/05/23 04:44:04;;;;;;;18.13;5.88;;;14.90;99.90;;;;;;5009812;28;20033;-68
2023/05/23 04:46:51;;;;;;;18.35;7.03;;;14.90;99.90;;;;;;5013663;28;20041;-68
2023/05/23 04:49:25;;;;;;;18.63;7.15;;;14.90;99.90;;;;;;5001718;28;20099;-68
2023/05/23 04:51:52;;;;;;;11.77;6.18;;;14.80;99.90;;;;;;5004656;28;20037;-69
2023/05/23 04:54:23;;;;;;;13.97;6.73;;;14.80;99.90;;;;;;4995645;28;20043;-69
2023/05/23 04:56:50;;;;;;;14.52;5.45;;;14.80;99.90;;;;;;4994080;28;20072;-68
2023/05/23 04:59:19;;;;;;;13.52;5.97;;;14.80;99.90;;;;;;5006320;28;20461;-68
2023/05/23 05:01:45;;;;;;;13.15;6.38;;;14.80;99.90;;;;;;5009824;28;20040;-68
2023/05/23 05:04:12;;;;;;;16.20;6.65;;;14.80;99.90;;;;;;5011202;28;20362;-69
2023/05/23 05:06:40;;;;;;;12.10;5.68;;;14.80;99.90;;;;;;5012557;28;20051;-71
2023/05/23 05:09:08;;;;;;;16.73;6.53;;;14.70;99.90;;;;;;5002853;28;20503;-71
2023/05/23 05:11:35;;;;;;;17.80;6.43;;;14.70;99.90;;;;;;5021673;28;20051;-71
2023/05/23 05:14:02;;;;;;;18.30;6.28;;;14.70;99.90;;;;;;5013718;28;20037;-68
2023/05/23 05:16:28;;;;;;;13.52;6.50;;;14.70;99.90;;;;;;5007987;28;21002;-70
2023/05/23 05:18:56;;;;;;;13.20;5.40;;;14.60;99.90;;;;;;5024771;28;20109;-71
2023/05/23 05:21:22;;;;;;;16.27;7.38;;;14.60;99.90;;;;;;4986344;28;20465;-70
2023/05/23 05:23:50;;;;;;;19.23;8.10;;;14.60;99.90;;;;;;5012260;28;20033;-70
2023/05/23 05:26:17;;;;;;;18.00;7.50;;;14.50;99.90;;;;;;5012072;28;20041;-70
2023/05/23 05:28:43;;;;;;;15.15;6.88;;;14.50;99.90;;;;;;5000290;28;20025;-71
2023/05/23 05:31:13;;;;;;;14.60;7.03;;;14.40;99.90;;;;;;5015852;28;20046;-71
2023/05/23 05:33:44;;;;;;;15.55;6.40;;;14.40;99.90;;;;;;5021325;28;20396;-71
2023/05/23 05:36:13;;;;;;;13.88;6.63;;;14.40;99.90;;;;;;5011119;28;20032;-70
2023/05/23 05:38:40;;;;;;;15.57;5.65;;;14.30;99.90;;;;;;5011972;28;20048;-70
2023/05/23 05:41:07;;;;;;;15.07;5.55;;;14.30;99.90;;;;;;5005007;28;20048;-72
2023/05/23 05:43:36;;;;;;;18.60;6.90;;;14.30;99.90;;;;;;5011323;28;20063;-72
2023/05/23 05:46:02;;;;;;;13.15;6.05;;;14.20;99.90;;;;;;5012409;28;20040;-70
2023/05/23 05:48:29;;;;;;;14.63;6.03;;;14.20;99.90;;;;;;4982002;28;20032;-71
2023/05/23 05:51:02;;;;;;;12.25;5.35;;;14.20;99.90;;;;;;5016815;28;20045;-70
2023/05/23 05:53:30;;;;;;;13.30;4.25;;;14.20;99.90;;;;;;5021002;28;20040;-70
2023/05/23 05:55:56;;;;;;;12.30;4.63;;;14.10;99.90;;;;;;5015605;28;20480;-70
2023/05/23 05:58:23;;;;;;;14.55;5.55;;;14.10;99.90;;;;;;5009656;28;20033;-70
2023/05/23 06:00:57;;;;;;;9.70;3.47;;;14.20;99.90;;;;;;4990610;28;20376;-71
2023/05/23 06:03:24;;;;;;;18.02;4.53;;;14.10;99.90;;;;;;5008492;28;20212;-70
2023/05/23 06:05:53;;;;;;;16.88;4.10;;;14.10;99.90;;;;;;5011160;28;20525;-71
2023/05/23 06:08:21;;;;;;;10.00;3.25;;;14.10;99.90;;;;;;5008839;28;20033;-71
2023/05/23 06:10:48;;;;;;;11.10;3.83;;;14.10;99.90;;;;;;4991480;28;20075;-68
2023/05/23 06:13:14;;;;;;;9.43;3.75;;;14.10;99.90;;;;;;5015398;28;20040;-68
2023/05/23 06:15:44;;;;;;;13.82;3.92;;;14.10;99.90;;;;;;5015972;28;20037;-68
2023/05/23 06:18:11;;;;;;;11.88;3.83;;;14.10;99.90;;;;;;5004403;28;20048;-68
2023/05/23 06:20:38;;;;;;;12.80;4.22;;;14.10;99.90;;;;;;4998312;28;20036;-68
2023/05/23 06:23:08;;;;;;;13.20;4.20;;;14.10;99.90;;;;;;4986626;28;20048;-69
2023/05/23 06:25:34;;;;;;;11.98;4.38;;;14.00;99.90;;;;;;5005725;28;20051;-69
2023/05/23 06:28:03;;;;;;;11.15;4.63;;;14.00;99.90;;;;;;5002552;28;21653;-68
2023/05/23 06:30:30;;;;;;;10.63;3.53;;;14.00;99.90;;;;;;4997024;28;20037;-69
2023/05/23 06:32:56;;;;;;;13.32;4.28;;;13.90;99.90;;;;;;5010364;28;20036;-69
2023/05/23 06:35:24;;;;;;;13.55;4.30;;;13.90;99.90;;;;;;4987828;28;20041;-69
2023/05/23 06:37:50;;;;;;;7.28;3.63;;;13.90;99.90;;;;;;5015904;28;20051;-68
2023/05/23 06:40:18;;;;;;;12.88;3.95;;;13.90;99.90;;;;;;5000343;28;20377;-69
2023/05/23 06:42:44;;;;;;;10.57;3.85;;;13.80;99.90;;;;;;4988354;28;20033;-68
2023/05/23 06:45:23;;;;;;;13.00;3.28;;;13.80;99.90;;;;;;5001484;28;21658;-68
2023/05/23 06:47:50;;;;;;;10.63;3.50;;;13.80;99.90;;;;;;4985180;28;20064;-69
2023/05/23 06:50:20;;;;;;;9.07;3.97;;;13.80;99.90;;;;;;4998858;28;20037;-68
2023/05/23 06:52:48;;;;;;;12.15;3.15;;;13.80;99.90;;;;;;4987445;28;20056;-68
2023/05/23 06:55:18;;;;;;;10.57;3.03;;;13.90;99.90;;;;;;5014471;28;20037;-68
2023/05/23 06:57:46;;;;;;;9.27;2.72;;;14.00;99.90;;;;;;5015804;28;20040;-68
2023/05/23 07:00:13;;;;;;;9.82;2.42;;;14.00;99.90;;;;;;5003207;28;20558;-68
2023/05/23 07:02:48;;;;;;;8.63;3.05;;;14.10;99.90;;;;;;5005061;28;20396;-68
2023/05/23 07:05:18;;;;;;;9.98;3.10;;;14.10;99.90;;;;;;4987316;28;20669;-68
2023/05/23 07:07:47;;;;;;;13.80;4.32;;;14.20;99.90;;;;;;5003672;28;20041;-68
2023/05/23 07:10:14;;;;;;;10.52;3.63;;;14.30;99.90;;;;;;4997023;28;20056;-69
2023/05/23 07:12:41;;;;;;;9.40;3.70;;;14.50;99.90;;;;;;5004324;28;20053;-68
2023/05/23 07:15:10;;;;;;;11.13;3.90;;;14.80;99.90;;;;;;5011627;28;20037;-69
2023/05/23 07:17:43;;;;;;;10.25;3.92;;;14.90;99.90;;;;;;5018228;28;20036;-69
2023/05/23 07:20:10;;;;;;;9.57;3.03;;;15.10;99.90;;;;;;4993821;28;20040;-69
2023/05/23 07:22:38;;;;;;;9.82;3.65;;;15.40;99.90;;;;;;5020690;28;20037;-69
2023/05/23 07:25:05;;;;;;;11.93;3.20;;;15.60;99.90;;;;;;4988608;28;20029;-69
2023/05/23 07:27:34;;;;;;;7.78;3.28;;;15.80;99.90;;;;;;5022536;28;20432;-69
2023/05/23 07:30:00;;;;;;;9.07;3.38;;;15.90;99.90;;;;;;5018325;28;20037;-69
2023/05/23 07:32:27;;;;;;;10.18;3.50;;;15.90;99.90;;;;;;5023974;28;20037;-68
2023/05/23 07:34:54;;;;;;;11.18;3.63;;;15.90;99.90;;;;;;5009773;28;20915;-69
2023/05/23 07:37:21;;;;;;;5.88;2.20;;;15.80;99.90;;;;;;5017658;28;20041;-69
2023/05/23 07:39:47;;;;;;;7.78;3.28;;;15.70;99.90;;;;;;5014587;28;20037;-68
2023/05/23 07:42:14;;;;;;;9.05;3.47;;;15.70;99.90;;;;;;5013986;28;20051;-69
2023/05/23 07:44:40;;;;;;;8.75;2.97;;;15.60;99.90;;;;;;5005379;28;20052;-68
2023/05/23 07:47:07;;;;;;;6.63;2.88;;;15.60;99.90;;;;;;5008249;28;20041;-68
2023/05/23 07:49:34;;;;;;;7.53;2.53;;;15.60;99.90;;;;;;5018262;28;20037;-68
2023/05/23 07:52:01;;;;;;;6.00;3.13;;;15.80;99.90;;;;;;4991200;28;20408;-69
2023/05/23 07:54:27;;;;;;;8.57;2.67;;;16.10;99.90;;;;;;5007284;28;20055;-69
2023/05/23 07:56:57;;;;;;;6.95;2.42;;;16.40;99.90;;;;;;5014659;28;20048;-69
2023/05/23 07:59:25;;;;;;;9.27;2.42;;;16.60;99.90;;;;;;4998106;28;20032;-69
2023/05/23 08:01:52;;;;;;;8.10;2.10;;;16.70;99.90;;;;;;5013749;28;20025;-69
2023/05/23 08:04:20;;;;;;;4.55;1.70;;;16.70;99.90;;;;;;4992321;28;21435;-69
2023/05/23 08:06:50;;;;;;;7.22;2.00;;;16.80;99.90;;;;;;5009478;28;20045;-68
2023/05/23 08:09:17;;;;;;;8.40;2.45;;;16.90;99.90;;;;;;4989785;28;20043;-69
2023/05/23 08:11:49;;;;;;;8.50;1.85;;;16.90;99.90;;;;;;4993292;28;21315;-69
2023/05/23 08:14:16;;;;;;;5.63;1.50;;;16.80;99.90;;;;;;5008896;28;20400;-69
2023/05/23 08:16:51;;;;;;;8.32;1.60;;;16.60;99.90;;;;;;5012012;28;20040;-69
2023/05/23 08:19:21;;;;;;;7.63;1.60;;;16.50;99.90;;;;;;5000075;28;20037;-69
2023/05/23 08:21:49;;;;;;;7.70;1.63;;;16.30;99.90;;;;;;5032286;28;20040;-69
2023/05/23 08:24:15;;;;;;;8.90;1.63;;;16.10;99.90;;;;;;5018495;28;20407;-69
2023/05/23 08:26:43;;;;;;;8.70;1.90;;;16.10;99.90;;;;;;4979866;28;20044;-69
2023/05/23 08:29:12;;;;;;;9.55;1.35;;;16.20;99.90;;;;;;5008379;28;20039;-68
2023/05/23 08:31:40;;;;;;;9.13;1.45;;;16.40;99.90;;;;;;5009413;28;20037;-68
2023/05/23 08:34:07;;;;;;;10.10;1.80;;;16.50;99.90;;;;;;5010307;28;22260;-68
2023/05/23 08:36:35;;;;;;;8.30;1.67;;;16.60;99.90;;;;;;4997884;28;20040;-69
2023/05/23 08:39:02;;;;;;;7.82;1.67;;;16.60;99.90;;;;;;5000520;28;20044;-69
2023/05/23 08:41:34;;;;;;;7.07;1.27;;;16.70;99.90;;;;;;5002658;28;20432;-69
2023/05/23 08:44:05;;;;;;;8.05;1.17;;;16.80;99.90;;;;;;5003492;28;20036;-69
2023/05/23 08:46:45;;;;;;;6.15;1.42;;;17.00;99.90;;;;;;5011494;28;20044;-69
2023/05/23 08:49:16;;;;;;;8.65;1.30;;;17.30;99.90;;;;;;5008654;28;20032;-69
2023/05/23 08:51:44;;;;;;;11.00;1.48;;;17.70;99.90;;;;;;5010854;28;20044;-68
2023/05/23 08:54:17;;;;;;;5.10;1.10;;;18.00;99.90;;;;;;4982770;28;20041;-68
2023/05/23 08:56:44;;;;;;;6.93;1.00;;;18.30;99.90;;;;;;4980655;28;20044;-69
2023/05/23 08:59:13;;;;;;;9.52;1.42;;;18.40;99.90;;;;;;4996987;28;20041;-68
2023/05/23 09:01:42;;;;;;;8.60;1.58;;;18.30;99.90;;;;;;5002691;28;21428;-69
2023/05/23 09:04:11;;;;;;;5.78;1.25;;;18.20;99.90;;;;;;5003907;28;20029;-69
2023/05/23 09:06:48;;;;;;;7.50;1.13;;;18.00;99.90;;;;;;4983621;28;20075;-69
2023/05/23 09:09:15;;;;;;;13.38;1.85;;;18.00;99.90;;;;;;4977230;28;20037;-69
2023/05/23 09:11:44;;;;;;;10.65;1.38;;;17.90;99.90;;;;;;4995142;28;20028;-69
2023/05/23 09:14:13;;;;;;;11.80;2.63;;;18.00;99.90;;;;;;5013975;28;20052;-69
2023/05/23 09:16:47;;;;;;;10.70;1.92;;;18.10;99.90;;;;;;5029767;28;21334;-69
2023/05/23 09:19:17;;;;;;;10.50;2.20;;;18.10;99.90;;;;;;5008438;28;20040;-68
2023/05/23 09:21:53;;;;;;;11.23;1.90;;;18.20;99.90;;;;;;5027426;28;20496;-69
2023/05/23 09:24:35;;;;;;;9.40;1.75;;;18.20;99.90;;;;;;4991814;28;20036;-68
2023/05/23 09:27:04;;;;;;;14.05;2.13;;;18.20;99.90;;;;;;5032388;28;20077;-68
2023/05/23 09:29:31;;;;;;;7.72;2.03;;;18.20;99.90;;;;;;5006749;28;20044;-68
2023/05/23 09:32:14;;;;;;;11.38;2.30;;;18.20;99.90;;;;;;5008498;28;20041;-69
2023/05/23 09:34:41;;;;;;;9.57;1.70;;;18.20;99.90;;;;;;4992434;28;20044;-69
2023/05/23 09:37:12;;;;;;;6.55;1.83;;;18.30;99.90;;;;;;5009735;28;20040;-71
2023/05/23 09:39:38;;;;;;;8.27;2.42;;;18.40;99.90;;;;;;4985991;28;20037;-70
2023/05/23 09:42:05;;;;;;;9.02;2.13;;;18.70;99.90;;;;;;4982228;28;20755;-71
2023/05/23 09:44:41;;;;;;;11.30;2.50;;;18.90;99.90;;;;;;5019909;28;20033;-70
2023/05/23 09:47:08;;;;;;;7.32;1.60;;;19.00;99.90;;;;;;5020988;28;20045;-69
2023/05/23 09:49:37;;;;;;;10.10;2.40;;;19.10;99.90;;;;;;5006719;28;20055;-69
2023/05/23 09:52:03;;;;;;;10.18;2.08;;;19.30;99.90;;;;;;5010001;28;20052;-70
2023/05/23 09:54:30;;;;;;;7.80;1.73;;;19.40;99.60;;;;;;5009015;28;20033;-69
2023/05/23 09:56:59;;;;;;;12.02;1.40;;;19.20;99.50;;;;;;4992456;28;20669;-69
2023/05/23 09:59:29;;;;;;;7.55;1.30;;;19.10;99.90;;;;;;5005937;28;20347;-69
2023/05/23 10:02:01;;;;;;;5.45;1.20;;;19.00;99.90;;;;;;5010749;28;20040;-69
2023/05/23 10:04:30;;;;;;;8.65;1.58;;;18.90;99.90;;;;;;5020943;28;20861;-69
2023/05/23 10:07:03;;;;;;;11.95;2.05;;;18.80;99.90;;;;;;5020998;28;20055;-69
2023/05/23 10:09:35;;;;;;;6.93;1.23;;;18.90;99.90;;;;;;5007408;28;20040;-68
2023/05/23 10:12:31;;;;;;;9.53;1.77;;;19.00;99.90;;;;;;5009871;28;20040;-69
2023/05/23 10:15:06;;;;;;;8.93;1.92;;;19.10;99.10;;;;;;5010475;28;20052;-69
2023/05/23 10:17:45;;;;;;;11.70;1.88;;;19.20;98.30;;;;;;5008258;28;20048;-69
2023/05/23 10:20:15;;;;;;;7.93;1.45;;;19.40;97.90;;;;;;5004814;28;20037;-69
2023/05/23 10:22:42;;;;;;;10.63;1.42;;;19.60;97.70;;;;;;5007858;28;20043;-69
2023/05/23 10:25:09;;;;;;;12.52;2.25;;;19.80;97.10;;;;;;5018176;28;20033;-70
2023/05/23 10:27:39;;;;;;;9.13;2.03;;;19.90;96.90;;;;;;5019521;28;20039;-70
2023/05/23 10:30:07;;;;;;;9.10;1.63;;;20.10;96.60;;;;;;5009941;28;20036;-69
2023/05/23 10:32:34;;;;;;;6.72;1.67;;;20.10;95.60;;;;;;4975131;28;20116;-69
2023/05/23 10:35:09;;;;;;;8.43;1.35;;;20.00;95.60;;;;;;5003771;28;20040;-69
2023/05/23 10:37:47;;;;;;;5.88;1.42;;;19.90;95.50;;;;;;5008677;28;20592;-68
2023/05/23 10:40:25;;;;;;;7.28;2.08;;;20.00;95.30;;;;;;4998768;28;20044;-69
2023/05/23 10:43:17;;;;;;;10.75;1.80;;;20.30;95.00;;;;;;5009403;28;20503;-69
2023/05/23 10:45:44;;;;;;;9.70;2.03;;;21.00;94.70;;;;;;5017175;28;20043;-70
2023/05/23 10:48:31;;;;;;;9.60;1.88;;;21.50;93.90;;;;;;5022912;28;20392;-69
2023/05/23 10:51:05;;;;;;;6.03;1.20;;;21.80;92.60;;;;;;4990714;28;20056;-70
2023/05/23 10:53:34;;;;;;;7.07;1.58;;;22.10;92.30;;;;;;5010906;28;20048;-69
2023/05/23 10:56:03;;;;;;;6.28;1.10;;;22.50;91.50;;;;;;5009460;28;20357;-72
2023/05/23 10:58:30;;;;;;;8.10;1.92;;;22.80;90.70;;;;;;5008693;28;20036;-70
2023/05/23 11:01:12;;;;;;;8.75;1.13;;;23.10;88.30;;;;;;5002908;28;20043;-69
2023/05/23 11:03:44;;;;;;;8.65;1.40;;;23.40;85.90;;;;;;4991319;28;20048;-70
2023/05/23 11:06:37;;;;;;;7.32;1.70;;;23.70;83.80;;;;;;5020915;28;20040;-70
2023/05/23 11:09:08;;;;;;;8.68;1.92;;;23.30;82.00;;;;;;5020129;28;20837;-69
2023/05/23 11:11:51;;;;;;;10.90;1.95;;;23.10;83.30;;;;;;5010991;28;20041;-69
2023/05/23 11:14:18;;;;;;;;;;;23.10;84.00;;;;;;5009648;28;20536;-69
2023/05/23 11:16:45;;;;;;;9.63;1.30;;;22.90;84.10;;;;;;5023414;28;19916;-71
2023/05/23 11:19:17;;;;;;;7.45;1.80;;;22.60;84.00;;;;;;5007103;28;20687;-69
2023/05/23 11:21:44;;;;;;;;;;;22.40;83.10;;;;;;5008964;28;20488;-70
2023/05/23 11:24:11;;;;;;;7.10;1.67;;;22.40;83.30;;;;;;5012399;28;19917;-70
2023/05/23 11:26:37;;;;;;;6.95;1.50;;;22.40;83.40;;;;;;5019845;28;20033;-69
2023/05/23 11:29:08;;;;;;;9.48;2.42;;;22.60;83.60;;;;;;5016111;28;20601;-69
2023/05/23 11:31:39;;;;;;;9.35;1.77;;;22.70;81.90;;;;;;5011847;28;20029;-70
2023/05/23 11:34:06;;;;;;;9.63;1.35;;;22.70;81.80;;;;;;5003550;28;20025;-70
2023/05/23 11:36:33;;;;;;;6.57;2.13;;;22.50;80.20;;;;;;5010268;28;20056;-70
2023/05/23 11:39:03;;;;;;;8.30;1.65;;;22.10;79.70;;;;;;5009516;28;20037;-70
2023/05/23 11:41:30;;;;;;;5.65;1.30;;;22.00;81.20;;;;;;5003670;28;20044;-69
2023/05/23 11:43:58;;;;;;;5.65;1.25;;;22.20;81.50;;;;;;5008530;28;20033;-70
2023/05/23 11:46:24;;;;;;;5.75;1.80;;;22.50;81.70;;;;;;5018835;28;20118;-70
2023/05/23 11:48:51;;;;;;;6.80;1.65;;;23.00;80.60;;;;;;5018662;28;20500;-69
2023/05/23 11:51:18;;;;;;;7.05;1.20;;;23.20;78.60;;;;;;5010313;28;20053;-69
2023/05/23 11:53:45;;;;;;;6.88;1.63;;;23.70;78.10;;;;;;5011726;28;20052;-70
2023/05/23 11:56:13;;;;;;;8.57;1.98;;;24.40;75.90;;;;;;5019494;28;20040;-70
2023/05/23 11:58:40;;;;;;;7.07;1.95;;;24.50;74.60;;;;;;5013815;28;20037;-70
2023/05/23 12:01:08;;;;;;;7.85;2.00;;;24.00;75.10;;;;;;5008670;28;20040;-70
2023/05/23 12:03:45;;;;;;;8.30;1.80;;;23.50;75.70;;;;;;5011952;28;20099;-69
2023/05/23 12:06:18;;;;;;;11.10;2.13;;;23.40;76.70;;;;;;5018691;28;20670;-70
2023/05/23 12:08:46;;;;;;;8.40;1.88;;;23.40;76.50;;;;;;5023749;28;20730;-70
2023/05/23 12:11:13;;;;;;;10.60;1.80;;;23.20;75.90;;;;;;5015376;28;20423;-70
2023/05/23 12:13:41;;;;;;;9.13;1.60;;;23.20;75.50;;;;;;5017613;28;20037;-70
2023/05/23 12:16:07;;;;;;;6.60;2.03;;;23.60;74.00;;;;;;5013739;28;22320;-70
2023/05/23 12:18:36;;;;;;;7.43;1.98;;;23.50;72.50;;;;;;5010771;28;20037;-70
2023/05/23 12:21:05;;;;;;;5.60;1.40;;;23.10;73.30;;;;;;5023175;28;20033;-69
2023/05/23 12:23:31;;;;;;;8.55;1.90;;;22.90;73.30;;;;;;5012936;28;20336;-69
2023/05/23 12:25:58;;;;;;;5.93;1.40;;;22.50;73.00;;;;;;5011671;28;20076;-70
2023/05/23 12:28:38;;;;;;;5.45;1.33;;;22.30;73.10;;;;;;5020522;28;20037;-70
2023/05/23 12:31:24;;;;;;;8.07;1.13;;;23.00;72.40;;;;;;5017960;28;20021;-69
2023/05/23 12:33:52;;;;;;;7.43;1.35;;;23.80;71.30;;;;;;5031843;28;20477;-71
2023/05/23 12:36:25;;;;;;;8.00;1.98;;;24.30;69.80;;;;;;5012020;28;20037;-69
2023/05/23 12:38:52;;;;;;;5.88;1.58;;;24.20;68.60;;;;;;5011869;28;20041;-70
2023/05/23 12:41:19;;;;;;;7.95;1.33;;;23.80;69.60;;;;;;5008090;28;20182;-70
2023/05/23 12:43:53;;;;;;;6.60;1.30;;;23.80;70.80;;;;;;5011882;28;20056;-69
2023/05/23 12:46:21;;;;;;;6.22;1.25;;;24.80;70.30;;;;;;5012701;28;20634;-70
2023/05/23 12:48:47;;;;;;;8.10;1.27;;;25.70;68.40;;;;;;5024241;28;20395;-71
2023/05/23 12:51:15;;;;;;;5.70;1.23;;;26.20;67.00;;;;;;5018703;28;20055;-69
2023/05/23 12:53:42;;;;;;;6.07;1.65;;;26.10;65.90;;;;;;5000737;28;20704;-69